Time;durP1;ratioP1;P1;durP2;ratioP2;P2;SDS_P1;SDS_P2;PMS_P1;PMS_P2;Temp;Humidity;BMP_temperature;BMP_pressure;BME280_temperature;BME280_humidity;BME280_pressure;Samples;Min_cycle;Max_cycle;Signal;HPM_P1;HPM_P2
2022/11/26 00:00:36;;;;;;;;;59.75;46.50;;;;;7.92;70.23;102706.31;2380403;28;47160;-83
2022/11/26 00:01:47;;;;;;;;;55.25;45.50;;;;;7.91;70.04;102704.56;2384203;28;44735;-83
2022/11/26 00:02:57;;;;;;;;;62.50;48.00;;;;;7.87;70.37;102699.31;2374659;28;46025;-83
2022/11/26 00:04:09;;;;;;;;;57.75;46.25;;;;;7.88;70.59;102694.94;2374180;28;45439;-83
2022/11/26 00:05:20;;;;;;;;;63.25;47.50;;;;;7.88;70.53;102710.63;2375406;28;46468;-83
2022/11/26 00:06:35;;;;;;;;;66.50;49.25;;;;;7.87;70.58;102714.13;2383321;28;45244;-83
2022/11/26 00:07:56;;;;;;;;;59.75;47.25;;;;;7.85;70.26;102711.47;2380970;28;45452;-83
2022/11/26 00:09:14;;;;;;;;;64.50;49.00;;;;;7.85;70.51;102713.25;2369374;28;45529;-83
2022/11/26 00:10:30;;;;;;;;;61.75;47.00;;;;;7.83;70.31;102705.34;2374392;28;47233;-83
2022/11/26 00:11:41;;;;;;;;;59.00;44.75;;;;;7.82;70.41;102714.09;2378303;28;45360;-83
2022/11/26 00:12:51;;;;;;;;;57.75;46.00;;;;;7.80;70.46;102710.59;2381818;28;45473;-83
2022/11/26 00:14:01;;;;;;;;;56.50;44.50;;;;;7.80;70.46;102714.94;2375735;28;45249;-83
2022/11/26 00:15:19;;;;;;;;;62.75;46.50;;;;;7.80;70.09;102723.66;2375316;28;45293;-83
2022/11/26 00:16:29;;;;;;;;;62.50;47.00;;;;;7.79;70.70;102718.41;2382225;28;45399;-83
2022/11/26 00:17:40;;;;;;;;;61.00;46.50;;;;;7.79;70.29;102724.53;2381461;28;46633;-83
2022/11/26 00:18:50;;;;;;;;;53.50;42.00;;;;;7.79;69.99;102723.63;2376268;28;44656;-83
2022/11/26 00:20:01;;;;;;;;;65.00;49.25;;;;;7.76;70.64;102730.59;2375910;28;45406;-83
2022/11/26 00:21:23;;;;;;;;;64.25;49.50;;;;;7.76;69.91;102721.84;2379746;28;45264;-83
2022/11/26 00:22:45;;;;;;;;;61.25;46.75;;;;;7.75;70.49;102726.22;2373638;28;48196;-83
2022/11/26 00:23:56;;;;;;;;;62.50;48.00;;;;;7.73;70.06;102724.47;2370359;28;44970;-83
2022/11/26 00:25:13;;;;;;;;;61.00;48.00;;;;;7.73;70.23;102732.31;2382549;28;45487;-83
2022/11/26 00:26:24;;;;;;;;;63.50;49.25;;;;;7.71;70.54;102727.03;2380662;28;45240;-83
2022/11/26 00:27:34;;;;;;;;;60.25;47.00;;;;;7.71;70.19;102728.78;2373305;28;48299;-83
2022/11/26 00:29:02;;;;;;;;;61.50;48.75;;;;;7.70;70.42;102732.28;2376891;28;45241;-83
2022/11/26 00:30:31;;;;;;;;;58.00;45.75;;;;;7.71;70.13;102728.78;2384248;28;46577;-83
2022/11/26 00:31:41;;;;;;;;;58.00;46.25;;;;;7.70;70.43;102735.78;2372909;28;44771;-83
2022/11/26 00:32:53;;;;;;;;;62.75;47.75;;;;;7.68;70.34;102726.16;2365338;29;46994;-83
2022/11/26 00:34:03;;;;;;;;;57.25;45.75;;;;;7.70;70.52;102737.50;2375490;28;44692;-83
2022/11/26 00:35:14;;;;;;;;;53.50;44.00;;;;;7.68;70.33;102732.25;2383165;28;46123;-83
2022/11/26 00:36:29;;;;;;;;;55.50;45.25;;;;;7.69;70.70;102738.34;2376642;28;45382;-83
2022/11/26 00:37:57;;;;;;;;;58.25;45.75;;;;;7.66;70.09;102728.72;2379422;28;45472;-83
2022/11/26 00:39:25;;;;;;;;;56.25;44.50;;;;;7.67;70.30;102734.84;2373479;28;45351;-83
2022/11/26 00:40:36;;;;;;;;;65.00;51.00;;;;;7.64;70.41;102731.34;2379130;28;45505;-83
2022/11/26 00:41:51;;;;;;;;;62.00;47.25;;;;;7.63;69.79;102733.97;2384402;28;45430;-84
2022/11/26 00:43:01;;;;;;;;;60.50;47.25;;;;;7.61;70.27;102731.28;2379650;28;46552;-83
2022/11/26 00:44:23;;;;;;;;;60.25;46.25;;;;;7.59;70.23;102730.41;2371357;28;45219;-83
2022/11/26 00:45:33;;;;;;;;;53.25;41.00;;;;;7.59;70.41;102734.75;2376991;28;45466;-83
2022/11/26 00:46:44;;;;;;;;;62.75;48.75;;;;;7.58;70.56;102733.88;2384173;28;45359;-83
2022/11/26 00:47:56;;;;;;;;;59.50;48.50;;;;;7.59;70.40;102737.38;2375000;28;46357;-84
2022/11/26 00:49:06;;;;;;;;;54.00;42.50;;;;;7.59;70.11;102737.38;2381230;28;45443;-83
2022/11/26 00:50:19;;;;;;;;;57.00;43.25;;;;;7.57;70.54;102739.97;2383320;28;46161;-83
2022/11/26 00:51:30;;;;;;;;;60.25;47.00;;;;;7.57;70.74;102734.75;2375300;28;45351;-83
2022/11/26 00:52:40;;;;;;;;;53.25;44.00;;;;;7.57;70.30;102739.97;2372369;28;46269;-83
2022/11/26 00:53:55;;;;;;;;;64.50;48.75;;;;;7.58;70.22;102735.63;2373851;28;45482;-83
2022/11/26 00:55:34;;;;;;;;;59.50;47.50;;;;;7.58;70.65;102739.09;2377193;28;45685;-83
2022/11/26 00:56:47;;;;;;;;;58.25;44.75;;;;;7.58;70.41;102733.00;2374870;28;45225;-83
2022/11/26 00:57:59;;;;;;;;;60.50;48.25;;;;;7.59;70.09;102742.59;2381878;28;45314;-83
2022/11/26 00:59:13;;;;;;;;;57.75;46.25;;;;;7.57;70.64;102736.47;2381600;28;45497;-83
2022/11/26 01:00:26;;;;;;;;;58.75;45.50;;;;;7.54;70.23;102734.69;2374208;28;47957;-84
2022/11/26 01:01:36;;;;;;;;;58.25;46.25;;;;;7.55;70.05;102741.72;2376777;28;45208;-83
2022/11/26 01:02:47;;;;;;;;;59.50;47.00;;;;;7.53;70.33;102732.97;2384214;28;45449;-83
2022/11/26 01:03:58;;;;;;;;;62.75;49.50;;;;;7.53;70.05;102743.44;2380327;28;45410;-83
2022/11/26 01:05:08;;;;;;;;;63.75;48.00;;;;;7.53;70.69;102743.44;2381166;28;46890;-83
2022/11/26 01:06:20;;;;;;;;;59.50;46.50;;;;;7.51;70.51;102739.88;2367183;28;44785;-83
2022/11/26 01:07:30;;;;;;;;;54.00;43.00;;;;;7.51;70.14;102739.88;2362488;28;47450;-84
2022/11/26 01:08:41;;;;;;;;;53.75;43.25;;;;;7.50;70.17;102739.03;2376784;28;45335;-83
2022/11/26 01:09:51;;;;;;;;;55.50;43.75;;;;;7.51;70.19;102745.13;2379616;28;45315;-83
2022/11/26 01:11:04;;;;;;;;;57.00;45.00;;;;;7.51;70.50;102743.41;2367272;28;45299;-83
2022/11/26 01:12:14;;;;;;;;;53.75;43.50;;;;;7.51;70.76;102746.00;2367910;28;46992;-84
2022/11/26 01:13:25;;;;;;;;;49.50;39.25;;;;;7.51;70.61;102748.63;2374353;28;45477;-84
2022/11/26 01:14:36;;;;;;;;;54.25;43.00;;;;;7.51;70.67;102746.00;2370798;28;47729;-83
2022/11/26 01:15:46;;;;;;;;;56.50;44.00;;;;;7.50;70.62;102752.13;2374064;28;45273;-84
2022/11/26 01:16:57;;;;;;;;;54.50;44.25;;;;;7.51;70.25;102747.75;2376406;28;47642;-83
2022/11/26 01:18:16;;;;;;;;;53.25;41.00;;;;;7.48;70.33;102745.09;2365506;28;44760;-84
2022/11/26 01:19:26;;;;;;;;;54.00;41.75;;;;;7.49;70.82;102749.47;2366371;28;47309;-83
2022/11/26 01:20:37;;;;;;;;;54.50;44.00;;;;;7.47;70.63;102751.19;2377762;28;44784;-84
2022/11/26 01:21:48;;;;;;;;;57.00;43.00;;;;;7.49;70.76;102752.97;2382117;28;46466;-84
2022/11/26 01:22:58;;;;;;;;;46.75;39.50;;;;;7.47;70.44;102753.81;2375148;28;45224;-84
2022/11/26 01:24:08;;;;;;;;;54.75;41.25;;;;;7.48;70.23;102758.19;2371848;28;48138;-84
2022/11/26 01:25:20;;;;;;;;;55.75;44.50;;;;;7.47;70.89;102757.31;2375943;28;45346;-84
2022/11/26 01:26:38;;;;;;;;;53.50;44.50;;;;;7.47;70.77;102756.41;2372666;28;46966;-83
2022/11/26 01:27:49;;;;;;;;;56.75;44.00;;;;;7.46;70.63;102759.91;2377887;28;45347;-83
2022/11/26 01:28:59;;;;;;;;;58.25;44.00;;;;;7.45;70.72;102752.91;2377747;28;45418;-84
2022/11/26 01:30:19;;;;;;;;;53.25;41.00;;;;;7.45;70.32;102756.41;2371185;28;45694;-84
2022/11/26 01:31:31;;;;;;;;;52.75;41.25;;;;;7.46;70.39;102754.69;2373894;28;47564;-84
2022/11/26 01:32:41;;;;;;;;;52.25;42.75;;;;;7.45;70.48;102755.53;2367268;28;45211;-84
2022/11/26 01:33:52;;;;;;;;;52.50;41.00;;;;;7.42;70.78;102752.03;2359793;28;47171;-84
2022/11/26 01:35:03;;;;;;;;;53.00;43.00;;;;;7.44;70.73;102754.66;2376657;28;45383;-84
2022/11/26 01:36:31;;;;;;;;;46.25;38.00;;;;;7.42;70.81;102752.03;2380739;28;45333;-84
2022/11/26 01:37:42;;;;;;;;;51.75;42.50;;;;;7.43;70.70;102758.13;2370979;28;45330;-84
2022/11/26 01:38:54;;;;;;;;;53.50;41.00;;;;;7.41;70.48;102752.88;2375630;28;45481;-84
2022/11/26 01:40:21;;;;;;;;;49.25;41.25;;;;;7.42;70.95;102756.38;2365021;29;44666;-84
2022/11/26 01:42:01;;;;;;;;;50.00;41.00;;;;;7.41;71.01;102750.25;2365356;28;47394;-84
2022/11/26 01:43:38;;;;;;;;;47.75;38.25;;;;;7.44;70.63;102752.03;2381199;28;44630;-84
2022/11/26 01:44:49;;;;;;;;;54.00;41.75;;;;;7.43;70.33;102756.38;2376719;28;45980;-84
2022/11/26 01:45:59;;;;;;;;;59.25;44.50;;;;;7.45;70.69;102750.28;2368694;28;45188;-84
2022/11/26 01:47:26;;;;;;;;;51.25;40.25;;;;;7.46;70.57;102746.84;2376737;28;45274;-84
2022/11/26 01:48:37;;;;;;;;;51.00;39.00;;;;;7.46;70.76;102749.44;2373650;28;45335;-84
2022/11/26 01:50:25;;;;;;;;;57.50;44.00;;;;;7.47;71.15;102751.19;2376951;28;45461;-84
2022/11/26 01:51:35;;;;;;;;;51.25;42.75;;;;;7.47;70.65;102748.56;2374117;28;45425;-84
2022/11/26 01:52:46;;;;;;;;;53.75;42.00;;;;;7.46;70.67;102738.97;2376568;28;48358;-84
2022/11/26 01:53:59;;;;;;;;;49.50;39.50;;;;;7.47;71.00;102745.97;2382810;28;45377;-84
2022/11/26 01:55:14;;;;;;;;;51.50;40.50;;;;;7.48;71.18;102750.34;2383621;28;46423;-84
2022/11/26 01:56:36;;;;;;;;;52.25;41.25;;;;;7.47;71.25;102744.22;2373976;28;45481;-84
2022/11/26 01:57:47;;;;;;;;;54.25;42.25;;;;;7.49;71.37;102744.22;2375349;28;46775;-83
2022/11/26 01:59:16;;;;;;;;;46.00;39.25;;;;;7.50;70.78;102749.50;2379653;28;45470;-84
2022/11/26 02:00:26;;;;;;;;;51.00;40.50;;;;;7.50;70.78;102754.75;2377893;28;45481;-84
2022/11/26 02:01:37;;;;;;;;;50.75;41.75;;;;;7.50;70.94;102752.13;2375124;28;45255;-84
2022/11/26 02:02:48;;;;;;;;;49.25;40.00;;;;;7.51;71.44;102755.59;2380133;28;46273;-84
2022/11/26 02:04:07;;;;;;;;;49.50;39.50;;;;;7.53;70.74;102761.75;2372975;28;45710;-84
2022/11/26 02:05:22;;;;;;;;;51.50;41.00;;;;;7.52;70.57;102752.13;2375363;28;45363;-84
2022/11/26 02:06:34;;;;;;;;;51.25;41.25;;;;;7.52;71.19;102753.00;2383182;28;45222;-84
2022/11/26 02:07:45;;;;;;;;;49.50;41.50;;;;;7.54;70.84;102755.63;2371124;28;47022;-84
2022/11/26 02:08:57;;;;;;;;;48.25;41.00;;;;;7.54;71.38;102747.78;2376667;28;46409;-84
2022/11/26 02:10:08;;;;;;;;;49.25;39.00;;;;;7.54;71.06;102747.78;2380636;28;46274;-84
2022/11/26 02:11:23;;;;;;;;;51.75;41.25;;;;;7.54;71.14;102753.91;2376126;28;45356;-84
2022/11/26 02:12:34;;;;;;;;;54.50;43.25;;;;;7.53;70.96;102748.66;2375027;28;45319;-83
2022/11/26 02:13:57;;;;;;;;;51.00;39.75;;;;;7.55;70.93;102749.56;2383110;28;44684;-84
2022/11/26 02:15:09;;;;;;;;;53.25;42.00;;;;;7.54;71.01;102745.16;2385157;28;45540;-84
2022/11/26 02:16:36;;;;;;;;;48.75;40.25;;;;;7.56;70.96;102748.69;2376190;28;44687;-84
2022/11/26 02:17:56;;;;;;;;;53.50;41.00;;;;;7.56;71.32;102742.56;2382269;28;46353;-84
2022/11/26 02:19:43;;;;;;;;;48.00;37.25;;;;;7.58;70.80;102746.97;2385616;28;45287;-84
2022/11/26 02:21:02;;;;;;;;;52.25;41.25;;;;;7.55;70.92;102744.31;2375373;28;47258;-84
2022/11/26 02:22:30;;;;;;;;;51.75;42.50;;;;;7.54;70.89;102748.69;2378350;28;45478;-84
2022/11/26 02:24:10;;;;;;;;;50.75;41.00;;;;;7.55;70.98;102749.56;2366324;29;47144;-84
2022/11/26 02:25:42;;;;;;;;;48.25;38.50;;;;;7.56;71.25;102746.06;2386640;28;45322;-84
2022/11/26 02:27:41;;;;;;;;;50.50;41.75;;;;;7.55;70.65;102746.94;2383606;28;45298;-84
2022/11/26 02:29:05;;;;;;;;;49.75;39.25;;;;;7.54;70.88;102751.28;2381975;28;45442;-84
2022/11/26 02:30:17;;;;;;;;;49.00;41.25;;;;;7.52;71.15;102750.41;2380775;28;45330;-83
2022/11/26 02:32:07;;;;;;;;;53.25;41.25;;;;;7.53;71.35;102735.59;2374119;28;45420;-83
2022/11/26 02:33:29;;;;;;;;;52.25;38.50;;;;;7.52;71.17;102737.31;2368588;28;48247;-84
2022/11/26 02:34:53;;;;;;;;;45.25;38.00;;;;;7.53;70.96;102738.19;2370732;28;45336;-84
2022/11/26 02:36:20;;;;;;;;;46.25;39.00;;;;;7.52;71.08;102731.19;2366103;29;47173;-84
2022/11/26 02:37:38;;;;;;;;;49.25;38.25;;;;;7.51;70.86;102735.53;2380703;28;45306;-84
2022/11/26 02:38:49;;;;;;;;;49.50;41.75;;;;;7.51;71.30;102735.53;2381388;28;45644;-84
2022/11/26 02:39:59;;;;;;;;;49.00;39.00;;;;;7.50;70.70;102739.03;2376692;28;45295;-84
2022/11/26 02:41:09;;;;;;;;;46.75;40.25;;;;;7.52;71.10;102745.16;2385321;28;46186;-84
2022/11/26 02:42:24;;;;;;;;;47.75;40.00;;;;;7.52;71.40;102745.16;2385126;28;44676;-84
2022/11/26 02:43:35;;;;;;;;;50.25;39.00;;;;;7.51;70.56;102734.66;2378395;28;45605;-84
2022/11/26 02:44:46;;;;;;;;;48.25;40.50;;;;;7.51;71.27;102742.50;2376210;28;45428;-84
2022/11/26 02:46:07;;;;;;;;;50.75;39.00;;;;;7.52;71.43;102741.66;2373000;28;47022;-84
2022/11/26 02:47:19;;;;;;;;;44.25;35.75;;;;;7.51;71.07;102743.41;2366533;28;45278;-84
2022/11/26 02:48:37;;;;;;;;;45.00;36.25;;;;;7.49;71.46;102739.00;2369323;28;45524;-83
2022/11/26 02:49:50;;;;;;;;;49.75;39.25;;;;;7.50;71.12;102738.16;2384626;28;45386;-83
2022/11/26 02:51:07;;;;;;;;;48.00;38.50;;;;;7.50;71.23;102740.78;2381291;28;45684;-84
2022/11/26 02:52:19;;;;;;;;;47.25;39.25;;;;;7.50;71.03;102748.63;2373806;28;45498;-84
2022/11/26 02:53:31;;;;;;;;;52.25;39.00;;;;;7.49;71.35;102742.50;2375473;28;46485;-84
2022/11/26 02:54:43;;;;;;;;;48.25;37.75;;;;;7.51;71.27;102745.13;2375374;28;45201;-83
2022/11/26 02:56:08;;;;;;;;;46.75;37.25;;;;;7.51;71.04;102747.75;2379571;28;46796;-84
2022/11/26 02:57:22;;;;;;;;;44.75;35.50;;;;;7.52;71.29;102741.66;2382331;28;44633;-84
2022/11/26 02:58:33;;;;;;;;;46.75;38.75;;;;;7.51;71.58;102743.41;2372977;28;48145;-84
2022/11/26 02:59:44;;;;;;;;;46.75;39.00;;;;;7.52;70.74;102744.28;2359721;29;44622;-84
2022/11/26 03:00:57;;;;;;;;;43.50;35.00;;;;;7.52;70.62;102741.66;2367023;28;48211;-84
2022/11/26 03:02:26;;;;;;;;;49.25;36.50;;;;;7.53;71.16;102743.44;2369098;28;44701;-84
2022/11/26 03:03:45;;;;;;;;;48.50;39.00;;;;;7.53;71.10;102748.66;2366454;28;47483;-84
2022/11/26 03:04:58;;;;;;;;;47.50;38.50;;;;;7.53;71.26;102751.28;2377191;28;45228;-83
2022/11/26 03:06:11;;;;;;;;;41.50;35.00;;;;;7.52;71.12;102753.00;2376061;28;45416;-84
2022/11/26 03:07:22;;;;;;;;;38.75;33.75;;;;;7.55;71.02;102749.56;2382084;28;45250;-84
2022/11/26 03:08:33;;;;;;;;;43.50;33.75;;;;;7.55;71.00;102749.56;2383504;28;47531;-83
2022/11/26 03:09:58;;;;;;;;;48.50;37.25;;;;;7.53;71.27;102748.66;2366147;29;45278;-84
2022/11/26 03:11:09;;;;;;;;;47.00;37.00;;;;;7.52;71.43;102746.91;2365850;29;47175;-84
2022/11/26 03:12:20;;;;;;;;;40.75;35.00;;;;;7.52;70.88;102741.66;2374941;28;44681;-84
2022/11/26 03:13:31;;;;;;;;;45.00;35.50;;;;;7.54;71.09;102750.41;2382273;28;45609;-84
2022/11/26 03:14:41;;;;;;;;;46.50;35.25;;;;;7.54;71.00;102745.16;2377792;28;45156;-84
2022/11/26 03:15:52;;;;;;;;;46.00;35.25;;;;;7.53;71.17;102746.06;2374564;28;47443;-83
2022/11/26 03:17:02;;;;;;;;;48.25;38.50;;;;;7.53;71.45;102744.28;2368241;28;44828;-84
2022/11/26 03:18:12;;;;;;;;;43.75;35.25;;;;;7.53;70.79;102746.06;2375048;28;48415;-84
2022/11/26 03:19:23;;;;;;;;;48.25;36.25;;;;;7.53;71.12;102749.53;2368460;28;45324;-84
2022/11/26 03:20:33;;;;;;;;;46.25;37.50;;;;;7.51;71.30;102742.50;2371360;28;47319;-84
2022/11/26 03:21:44;;;;;;;;;46.50;36.50;;;;;7.52;70.68;102744.28;2366057;29;45367;-84
2022/11/26 03:22:54;;;;;;;;;45.25;36.00;;;;;7.51;71.37;102747.75;2376843;28;46434;-84
2022/11/26 03:24:04;;;;;;;;;44.75;36.50;;;;;7.52;70.85;102752.13;2374397;28;45267;-84
2022/11/26 03:25:15;;;;;;;;;44.25;37.50;;;;;7.51;70.78;102753.84;2367652;28;47183;-84
2022/11/26 03:26:25;;;;;;;;;40.25;33.75;;;;;7.51;70.66;102745.13;2378089;28;45261;-84
2022/11/26 03:27:36;;;;;;;;;43.75;35.50;;;;;7.49;71.18;102747.72;2384499;28;46116;-84
2022/11/26 03:28:46;;;;;;;;;47.25;38.25;;;;;7.49;71.41;102749.47;2375750;28;45375;-84
2022/11/26 03:29:56;;;;;;;;;46.00;38.50;;;;;7.49;70.82;102747.72;2383867;28;48390;-84
2022/11/26 03:31:07;;;;;;;;;46.00;38.00;;;;;7.48;70.72;102748.56;2381781;28;45410;-84
2022/11/26 03:32:17;;;;;;;;;44.25;34.50;;;;;7.47;71.14;102748.56;2376702;28;46362;-84
2022/11/26 03:33:28;;;;;;;;;46.50;38.00;;;;;7.46;70.70;102741.59;2373240;28;45506;-84
2022/11/26 03:34:38;;;;;;;;;48.00;35.50;;;;;7.47;70.75;102745.97;2375077;28;46114;-84
2022/11/26 03:35:49;;;;;;;;;43.25;35.75;;;;;7.47;70.73;102745.97;2365979;28;44749;-83
2022/11/26 03:36:59;;;;;;;;;44.00;37.00;;;;;7.46;70.71;102747.69;2371793;28;47079;-84
2022/11/26 03:38:09;;;;;;;;;46.75;35.25;;;;;7.46;70.64;102747.69;2366179;28;44744;-84
2022/11/26 03:39:20;;;;;;;;;45.25;36.00;;;;;7.45;71.10;102745.94;2358999;29;46953;-84
2022/11/26 03:40:30;;;;;;;;;51.25;39.00;;;;;7.43;71.14;102742.44;2374853;28;44759;-83
2022/11/26 03:41:43;;;;;;;;;34.50;32.50;;;;;7.45;70.69;102750.28;2374844;28;47024;-83
2022/11/26 03:42:54;;;;;;;;;41.50;34.25;;;;;7.42;71.33;102749.41;2376258;28;46166;-84
2022/11/26 03:44:04;;;;;;;;;41.75;36.25;;;;;7.43;71.11;102750.28;2373976;28;47698;-84
2022/11/26 03:45:14;;;;;;;;;38.50;35.00;;;;;7.44;71.01;102749.41;2375259;28;45193;-84
2022/11/26 03:46:25;;;;;;;;;25.25;21.50;;;;;7.43;71.02;102745.06;2381589;28;45597;-83
2022/11/26 03:47:35;;;;;;;;;41.50;34.50;;;;;7.42;70.36;102746.78;2380060;28;44629;-83
2022/11/26 03:48:45;;;;;;;;;47.25;37.75;;;;;7.42;70.94;102748.50;2371567;28;45564;-84
2022/11/26 03:49:56;;;;;;;;;43.75;36.50;;;;;7.41;71.07;102739.78;2374920;28;45255;-83
2022/11/26 03:51:06;;;;;;;;;38.75;32.75;;;;;7.42;71.45;102751.13;2376821;28;46203;-83
2022/11/26 03:52:16;;;;;;;;;40.25;34.00;;;;;7.43;71.19;102745.06;2374231;28;45264;-84
2022/11/26 03:53:27;;;;;;;;;39.25;33.75;;;;;7.42;71.06;102746.78;2377606;28;47870;-84
2022/11/26 03:54:37;;;;;;;;;43.75;34.00;;;;;7.42;70.70;102744.16;2384561;28;45278;-83
2022/11/26 03:55:47;;;;;;;;;39.00;35.25;;;;;7.42;70.79;102744.16;2376366;28;46427;-83
2022/11/26 03:56:58;;;;;;;;;49.25;37.50;;;;;7.41;71.05;102750.25;2374287;28;45367;-83
2022/11/26 03:58:08;;;;;;;;;41.50;35.00;;;;;7.42;70.88;102752.03;2367740;28;48019;-84
2022/11/26 03:59:18;;;;;;;;;44.25;35.50;;;;;7.41;70.94;102755.47;2376931;28;44760;-83
2022/11/26 04:00:29;;;;;;;;;42.25;34.50;;;;;7.41;70.95;102750.25;2380818;28;45488;-84
2022/11/26 04:01:39;;;;;;;;;40.00;34.25;;;;;7.42;71.23;102754.63;2373758;28;45469;-84
2022/11/26 04:02:50;;;;;;;;;33.50;27.25;;;;;7.42;70.69;102751.13;2368184;28;48263;-84
2022/11/26 04:04:00;;;;;;;;;44.50;35.00;;;;;7.40;70.73;102753.75;2368113;28;45317;-84
2022/11/26 04:05:11;;;;;;;;;38.50;34.00;;;;;7.42;71.06;102757.25;2377493;28;45498;-84
2022/11/26 04:06:21;;;;;;;;;40.00;31.50;;;;;7.41;71.18;102759.81;2384743;28;45231;-84
2022/11/26 04:07:31;;;;;;;;;39.50;34.00;;;;;7.41;71.27;102755.47;2365784;28;47175;-83
2022/11/26 04:08:42;;;;;;;;;39.00;34.00;;;;;7.41;71.04;102755.47;2361927;29;45237;-83
2022/11/26 04:09:52;;;;;;;;;37.00;33.00;;;;;7.42;70.98;102756.38;2370136;28;46201;-84
2022/11/26 04:11:03;;;;;;;;;35.25;32.00;;;;;7.42;71.66;102756.38;2383448;28;44788;-84
2022/11/26 04:12:13;;;;;;;;;34.25;30.25;;;;;7.41;71.45;102763.31;2384507;28;45537;-84
2022/11/26 04:13:23;;;;;;;;;39.75;33.75;;;;;7.42;70.85;102759.88;2374771;28;45245;-83
2022/11/26 04:14:34;;;;;;;;;39.50;34.25;;;;;7.40;70.72;102764.22;2374595;28;46706;-84
2022/11/26 04:15:44;;;;;;;;;42.50;34.25;;;;;7.41;71.58;102765.94;2365673;29;45294;-83
2022/11/26 04:16:54;;;;;;;;;31.00;30.00;;;;;7.40;71.29;102766.81;2369269;28;47702;-83
2022/11/26 04:18:04;;;;;;;;;37.50;34.00;;;;;7.41;71.24;102771.19;2367079;28;45157;-84
2022/11/26 04:19:15;;;;;;;;;44.50;36.25;;;;;7.41;70.89;102767.69;2368345;28;45486;-83
2022/11/26 04:20:25;;;;;;;;;34.75;32.50;;;;;7.41;71.73;102760.72;2384003;28;45241;-83
2022/11/26 04:21:36;;;;;;;;;37.50;32.25;;;;;7.45;71.21;102768.63;2380606;28;45260;-84
2022/11/26 04:22:46;;;;;;;;;35.75;32.00;;;;;7.43;70.77;102766.00;2376174;28;45335;-83
2022/11/26 04:23:56;;;;;;;;;41.25;33.00;;;;;7.43;70.94;102769.47;2381573;28;46416;-84
2022/11/26 04:25:07;;;;;;;;;32.00;31.00;;;;;7.46;71.11;102765.16;2381155;28;44856;-83
2022/11/26 04:26:18;;;;;;;;;37.75;30.25;;;;;7.46;71.15;102763.38;2382993;28;45463;-84
2022/11/26 04:27:28;;;;;;;;;34.25;32.25;;;;;7.45;71.60;102758.16;2374467;28;45553;-84
2022/11/26 04:28:38;;;;;;;;;34.25;29.00;;;;;7.46;71.24;102758.16;2368482;28;47822;-84
2022/11/26 04:29:49;;;;;;;;;39.50;31.75;;;;;7.45;71.70;102751.19;2365152;29;45308;-84
2022/11/26 04:30:59;;;;;;;;;35.75;32.50;;;;;7.47;71.33;102759.03;2372693;28;48328;-83
2022/11/26 04:32:10;;;;;;;;;36.25;31.25;;;;;7.47;71.04;102751.19;2372781;28;44947;-84
2022/11/26 04:33:20;;;;;;;;;33.50;32.00;;;;;7.47;71.09;102746.84;2382088;28;45442;-84
2022/11/26 04:34:30;;;;;;;;;42.75;34.00;;;;;7.49;71.26;102757.31;2374181;28;45324;-84
2022/11/26 04:35:41;;;;;;;;;34.50;32.75;;;;;7.50;71.34;102756.47;2366626;28;48517;-83
2022/11/26 04:36:52;;;;;;;;;38.50;32.00;;;;;7.50;71.49;102753.84;2371350;28;44799;-83
2022/11/26 04:38:02;;;;;;;;;34.25;32.00;;;;;7.50;71.22;102753.84;2367507;28;46988;-83
2022/11/26 04:39:12;;;;;;;;;26.50;20.50;;;;;7.50;71.03;102754.75;2372021;28;45180;-83
2022/11/26 04:40:23;;;;;;;;;33.00;31.50;;;;;7.52;71.39;102759.97;2381451;28;45551;-84
2022/11/26 04:41:33;;;;;;;;;41.25;33.00;;;;;7.52;70.95;102757.38;2373913;28;45272;-84
2022/11/26 04:42:43;;;;;;;;;41.50;31.75;;;;;7.52;71.42;102766.09;2374802;28;45439;-83
2022/11/26 04:43:53;;;;;;;;;37.75;32.00;;;;;7.52;70.68;102757.38;2365184;29;45304;-84
2022/11/26 04:45:04;;;;;;;;;35.75;30.50;;;;;7.54;71.09;102766.09;2371883;28;48411;-84
2022/11/26 04:46:15;;;;;;;;;39.75;32.25;;;;;7.53;71.12;102761.75;2377275;28;45408;-84
2022/11/26 04:47:25;;;;;;;;;34.75;31.50;;;;;7.52;71.18;102767.84;2384521;28;45242;-84
2022/11/26 04:48:35;;;;;;;;;37.00;32.25;;;;;7.49;71.05;102760.81;2368241;28;44718;-84
2022/11/26 04:49:46;;;;;;;;;37.25;31.50;;;;;7.51;70.81;102771.28;2373752;28;45460;-84
2022/11/26 04:50:56;;;;;;;;;40.25;34.00;;;;;7.51;71.21;102766.94;2373557;28;45165;-84
2022/11/26 04:52:06;;;;;;;;;36.75;33.25;;;;;7.52;71.18;102767.84;2375744;28;46334;-84
2022/11/26 04:53:20;;;;;;;;;42.25;34.75;;;;;7.50;70.91;102761.69;2374475;28;44699;-84
2022/11/26 04:54:30;;;;;;;;;34.25;30.25;;;;;7.50;71.24;102764.31;2377285;28;45414;-83
2022/11/26 04:55:41;;;;;;;;;35.00;33.00;;;;;7.50;71.25;102765.22;2374334;28;45485;-84
2022/11/26 04:56:51;;;;;;;;;34.75;32.00;;;;;7.50;70.91;102764.31;2383510;28;47035;-83
2022/11/26 04:58:02;;;;;;;;;32.00;30.25;;;;;7.49;71.13;102759.94;2374157;28;45287;-84
2022/11/26 04:59:12;;;;;;;;;33.75;28.25;;;;;7.50;71.04;102759.09;2374186;28;48368;-84
2022/11/26 05:00:22;;;;;;;;;32.50;30.00;;;;;7.49;70.92;102763.44;2377003;28;44622;-84
2022/11/26 05:01:33;;;;;;;;;44.50;34.25;;;;;7.47;71.06;102759.03;2382935;28;45311;-84
2022/11/26 05:02:44;;;;;;;;;38.50;33.75;;;;;7.49;70.79;102759.94;2383918;28;45458;-83
2022/11/26 05:03:54;;;;;;;;;43.25;35.50;;;;;7.46;70.77;102760.78;2365210;29;47184;-84
2022/11/26 05:05:05;;;;;;;;;39.25;34.50;;;;;7.48;70.86;102766.03;2374231;28;45298;-84
2022/11/26 05:06:15;;;;;;;;;30.50;26.50;;;;;7.45;70.99;102771.22;2366316;28;47006;-84
2022/11/26 05:07:26;;;;;;;;;41.00;33.00;;;;;7.46;71.07;102773.00;2359987;29;45231;-84
2022/11/26 05:08:36;;;;;;;;;42.25;34.25;;;;;7.44;70.48;102772.97;2370339;28;45541;-83
2022/11/26 05:09:47;;;;;;;;;33.25;29.75;;;;;7.45;70.38;102782.59;2381621;28;44751;-83
2022/11/26 05:10:59;;;;;;;;;45.50;33.25;;;;;7.45;70.80;102782.59;2367065;28;46974;-84
2022/11/26 05:12:11;;;;;;;;;41.75;33.75;;;;;7.42;70.94;102779.91;2376824;28;45371;-83
2022/11/26 05:13:21;;;;;;;;;33.75;32.25;;;;;7.41;70.65;102773.78;2370856;28;46947;-84
2022/11/26 05:14:32;;;;;;;;;35.75;32.00;;;;;7.45;70.71;102786.94;2376838;28;45710;-84
2022/11/26 05:15:42;;;;;;;;;33.25;30.75;;;;;7.40;70.81;102785.13;2374233;28;46213;-84
2022/11/26 05:16:52;;;;;;;;;33.75;30.00;;;;;7.41;70.53;102788.59;2376784;28;45256;-84
2022/11/26 05:18:03;;;;;;;;;36.50;33.00;;;;;7.43;71.02;102790.38;2373810;28;46749;-84
2022/11/26 05:19:13;;;;;;;;;37.50;32.25;;;;;7.42;71.12;102787.75;2376559;28;45165;-84
2022/11/26 05:20:24;;;;;;;;;39.25;33.25;;;;;7.41;71.13;102797.34;2374087;28;47449;-84
2022/11/26 05:21:34;;;;;;;;;35.75;32.00;;;;;7.39;70.86;102793.84;2364856;29;45452;-84
2022/11/26 05:22:45;;;;;;;;;38.25;33.00;;;;;7.40;70.97;102795.59;2367491;28;47727;-83
2022/11/26 05:23:55;;;;;;;;;42.50;34.25;;;;;7.37;70.89;102792.94;2360165;28;44615;-83
2022/11/26 05:25:06;;;;;;;;;43.00;35.50;;;;;7.38;71.09;102793.81;2366750;28;47794;-84
2022/11/26 05:26:16;;;;;;;;;40.50;35.00;;;;;7.37;70.98;102794.66;2370267;28;44813;-83
2022/11/26 05:27:26;;;;;;;;;32.00;29.50;;;;;7.36;70.91;102790.31;2386044;28;46026;-84
2022/11/26 05:28:37;;;;;;;;;36.25;32.50;;;;;7.37;70.89;102797.28;2383839;28;45893;-84
2022/11/26 05:29:47;;;;;;;;;38.75;34.25;;;;;7.36;70.71;102798.16;2371827;28;48232;-84
2022/11/26 05:31:00;;;;;;;;;40.50;34.50;;;;;7.35;71.17;102802.50;2366954;28;45890;-84
2022/11/26 05:32:10;;;;;;;;;35.25;31.75;;;;;7.37;71.21;102800.78;2370261;28;46209;-83
2022/11/26 05:33:21;;;;;;;;;40.50;35.25;;;;;7.37;70.59;102805.13;2371376;28;44948;-84
2022/11/26 05:34:31;;;;;;;;;38.00;35.00;;;;;7.35;71.31;102807.75;2367958;28;45269;-83
2022/11/26 05:35:42;;;;;;;;;31.50;29.25;;;;;7.36;71.04;102803.41;2368344;28;45415;-83
2022/11/26 05:36:52;;;;;;;;;39.25;33.25;;;;;7.35;71.07;102806.84;2376844;28;46270;-84
2022/11/26 05:38:02;;;;;;;;;45.75;34.25;;;;;7.35;71.24;102807.75;2383984;28;45277;-84